Latest Weather Observations for Mount Keith

IDW60801

Issued at 9:35 am WST Thursday 23 October 2014 (issued every 30 minutes, with the page automatically refreshed every 10 minutes)

About weather observations | Map of weather stations | Latest weather observations for WA | Other Formats
Station Details ID: 512019 Name: MOUNT KEITH Lat: -27.29 Lon: 120.55 Height: 542.33 m
Data from the previous 72 hours. | See also: Recent months for locations in Western Australia
Date/Time
WST
Temp
°C
App
Temp
°C
Dew
Point
Rel
Hum
%
Delta-T
°C
Wind Press
QNH
hPa
Press
MSL
hPa
Rain
since 9 am
mm
Dir
 
Spd
km/h
Gust
km/h
Spd
kts
Gust
kts
23/09:00am 22.4 19.1 8.1 40 7.7 SSW 15 24 8 13 1018.1 1015.6 0.0
23/08:30am 22.1 18.1 8.9 43 7.2 SSW 20 26 11 14 1018.1 1015.6 0.0
23/08:00am 21.7 17.9 8.9 44 7.0 S 19 28 10 15 1018.0 1015.5 0.0
23/07:30am 21.7 18.0 9.3 45 6.8 SSE 19 24 10 13 1017.8 1015.2 0.0
23/07:00am 21.3 17.6 9.5 47 6.5 S 19 24 10 13 1017.6 1015.0 0.0
23/06:30am 20.4 16.7 9.6 50 5.9 S 19 30 10 16 1017.4 1014.8 0.0
23/06:00am 19.7 17.3 9.9 53 5.4 S 13 17 7 9 1017.3 1014.7 0.0
23/05:30am 19.6 16.4 10.0 54 5.3 S 17 24 9 13 1016.9 1014.4 0.0
23/05:00am 20.1 14.3 9.4 50 5.8 SSW 30 39 16 21 1015.7 1013.1 0.0
23/04:30am 20.7 16.4 8.0 44 6.8 SW 20 26 11 14 1015.7 1013.1 0.0
23/04:00am 21.7 16.4 6.8 38 7.8 WSW 24 33 13 18 1015.4 1012.8 0.0
23/03:30am 22.4 17.9 7.0 37 8.1 WSW 20 28 11 15 1015.1 1012.5 0.0
23/03:00am 23.6 19.3 7.7 36 8.6 W 20 26 11 14 1014.9 1012.4 0.0
23/02:30am 23.9 19.7 7.5 35 8.8 W 19 26 10 14 1014.8 1012.3 0.0
23/02:00am 25.0 20.1 6.7 31 9.8 W 22 28 12 15 1014.6 1012.1 0.0
23/01:30am 25.6 21.0 6.3 29 10.3 WNW 20 28 11 15 1014.6 1012.1 0.0
23/01:00am 26.0 21.4 5.6 27 10.7 WNW 19 24 10 13 1014.9 1012.4 0.0
23/12:30am 26.1 21.9 5.7 27 10.8 WNW 17 20 9 11 1015.4 1012.8 0.0
23/12:00am 25.9 22.8 5.5 27 10.7 NW 11 17 6 9 1015.7 1013.1 0.0
 
Date/Time
WST
Temp
°C
App
Temp
°C
Dew
Point
Rel
Hum
%
Delta-T
°C
Wind Press
QNH
hPa
Press
MSL
hPa
Rain
since 9 am
mm
Dir
 
Spd
km/h
Gust
km/h
Spd
kts
Gust
kts
22/11:30pm 25.9 22.5 6.0 28 10.5 WNW 13 19 7 10 1016.1 1013.5 0.0
22/11:00pm 26.4 22.9 5.4 26 11.0 NW 13 19 7 10 1016.3 1013.8 0.0
22/10:30pm 27.0 22.1 5.3 25 11.4 W 20 26 11 14 1016.1 1013.5 0.0
22/10:00pm 26.2 22.9 6.3 28 10.6 W 13 17 7 9 1016.4 1013.9 0.0
22/09:30pm 26.2 22.9 6.3 28 10.6 NW 13 17 7 9 1016.9 1014.4 0.0
22/09:00pm 25.8 23.4 6.9 30 10.2 NW 9 11 5 6 1016.9 1014.4 0.0
22/08:30pm 26.5 23.9 6.0 27 10.9 NW 9 11 5 6 1016.9 1014.4 0.0
22/08:00pm 27.0 24.0 5.9 26 11.2 WNW 11 15 6 8 1016.8 1014.3 0.0
22/07:30pm 26.8 24.2 6.2 27 11.0 WNW 9 11 5 6 1016.6 1014.1 0.0
22/07:00pm 27.4 24.3 5.6 25 11.6 WNW 11 13 6 7 1016.5 1014.0 0.0
22/06:30pm 27.9 24.8 5.5 24 11.9 WNW 11 13 6 7 1016.3 1013.8 0.0
22/06:00pm 29.0 24.8 3.8 20 13.1 W 15 20 8 11 1016.2 1013.7 0.0
22/05:30pm 29.8 23.9 3.7 19 13.6 WNW 24 32 13 17 1015.9 1013.3 0.0
22/05:00pm 30.9 25.2 3.0 17 14.5 WNW 22 30 12 16 1015.6 1013.0 0.0
22/04:30pm 32.0 26.3 -0.9 12 16.1 NNW 19 28 10 15 1015.6 1013.0 0.0
22/04:00pm 32.6 25.8 -1.7 11 16.6 NNW 24 32 13 17 1015.4 1012.8 0.0
22/03:30pm 32.7 26.5 -0.4 12 16.4 NNW 22 35 12 19 1015.4 1012.8 0.0
22/03:00pm 33.1 26.4 -1.3 11 16.8 N 24 37 13 20 1015.5 1012.9 0.0
22/02:30pm 33.4 26.3 -1.0 11 17.0 NNW 26 39 14 21 1015.7 1013.1 0.0
22/02:00pm 33.0 25.9 -1.4 11 16.8 NNW 26 39 14 21 1016.0 1013.4 0.0
22/01:30pm 33.3 26.2 1.2 13 16.4 N 28 39 15 21 1016.2 1013.7 0.0
22/01:00pm 33.8 27.5 1.6 13 16.6 N 24 37 13 20 1016.7 1014.2 0.0
22/12:30pm 32.5 25.8 1.6 14 15.8 N 26 41 14 22 1017.2 1014.6 0.0
22/12:00pm 32.3 25.4 2.4 15 15.5 N 28 44 15 24 1017.7 1015.1 0.0
22/11:30am 31.0 23.8 3.1 17 14.5 NNE 30 44 16 24 1018.1 1015.6 0.0
22/11:00am 30.9 24.0 4.6 19 14.0 NNE 30 43 16 23 1018.6 1016.1 0.0
22/10:30am 29.9 22.6 4.5 20 13.4 NNE 32 43 17 23 1018.7 1016.2 0.0
22/10:00am 29.3 22.9 5.4 22 12.8 NE 28 35 15 19 1019.3 1016.7 0.0
22/09:30am 28.6 22.3 5.5 23 12.3 NNE 28 39 15 21 1019.6 1017.1 0.0
22/09:00am 27.6 21.2 5.2 24 11.8 ENE 28 35 15 19 1019.3 1016.7 -
22/08:30am 26.9 21.2 6.9 28 10.8 ENE 26 35 14 19 1019.1 1016.5 -
22/08:00am 24.6 19.4 7.3 33 9.3 ENE 24 32 13 17 1019.1 1016.5 -
22/07:30am 23.2 18.5 7.7 37 8.3 ENE 22 30 12 16 1019.1 1016.5 -
22/07:00am 22.0 18.9 8.9 43 7.1 ENE 15 24 8 13 1018.7 1016.2 -
22/06:30am 20.1 17.4 9.1 49 6.0 E 13 19 7 10 1018.8 1016.3 -
22/06:00am 18.2 16.1 9.8 58 4.6 E 11 13 6 7 1018.6 1016.1 -
22/05:30am 17.3 14.4 9.5 60 4.2 ESE 15 17 8 9 1018.1 1015.6 -
22/05:00am 16.4 14.2 9.3 63 3.8 ESE 11 13 6 7 1018.2 1015.7 -
22/04:30am 16.8 14.6 9.2 61 4.1 ESE 11 13 6 7 1018.1 1015.6 -
22/04:00am 17.8 15.6 9.2 57 4.6 SE 11 13 6 7 1018.0 1015.5 -
22/03:30am 17.9 16.1 9.5 58 4.5 ESE 9 11 5 6 1017.9 1015.4 -
22/03:00am 18.8 16.1 9.0 53 5.3 ESE 13 17 7 9 1017.8 1015.2 0.0
22/02:30am 19.2 16.2 9.4 53 5.3 E 15 19 8 10 1017.8 1015.2 -
22/02:00am 19.1 16.7 9.9 55 5.0 E 13 17 7 9 1017.9 1015.4 -
22/01:30am 19.5 17.1 10.0 54 5.2 ESE 13 17 7 9 1018.1 1015.6 -
22/01:00am 19.8 17.3 9.7 52 5.5 ESE 13 17 7 9 1018.3 1015.8 -
22/12:30am 20.6 18.0 9.2 48 6.2 ESE 13 19 7 10 1018.5 1016.0 -
22/12:00am 21.0 18.3 8.9 46 6.6 ESE 13 17 7 9 1018.8 1016.3 -
 
Date/Time
WST
Temp
°C
App
Temp
°C
Dew
Point
Rel
Hum
%
Delta-T
°C
Wind Press
QNH
hPa
Press
MSL
hPa
Rain
since 9 am
mm
Dir
 
Spd
km/h
Gust
km/h
Spd
kts
Gust
kts
21/11:30pm 21.2 19.3 9.1 46 6.6 SE 9 15 5 8 1019.2 1016.6 -
21/11:00pm 21.5 19.2 9.1 45 6.8 SE 11 15 6 8 1019.4 1016.8 -
21/10:30pm 21.9 19.2 8.8 43 7.1 SE 13 17 7 9 1019.4 1016.8 -
21/10:00pm 22.0 19.3 8.9 43 7.1 SE 13 15 7 8 1019.7 1017.2 -
21/09:30pm 22.8 19.9 8.1 39 7.9 SE 13 15 7 8 1020.1 1017.6 -
21/09:00pm 23.4 20.5 8.3 38 8.2 SE 13 17 7 9 1020.2 1017.7 0.0
21/08:30pm 24.0 20.7 8.0 36 8.7 SE 15 20 8 11 1020.1 1017.6 -
21/08:00pm 24.5 21.3 8.5 36 8.8 SE 15 17 8 9 1020.1 1017.6 -
21/07:30pm 25.1 22.2 8.1 34 9.3 SE 13 17 7 9 1019.9 1017.4 -
21/07:00pm 26.2 22.8 7.7 31 10.1 SE 15 22 8 12 1019.5 1016.9 -
21/06:30pm 26.9 24.1 6.9 28 10.8 SE 11 13 6 7 1019.3 1016.7 -
21/06:00pm 28.6 25.7 4.8 22 12.5 SSE 9 11 5 6 1019.0 1016.4 -
21/05:30pm 29.6 26.1 3.5 19 13.5 SE 11 17 6 9 1018.6 1016.1 -
21/05:00pm 30.1 26.8 2.4 17 14.1 NNE 9 13 5 7 1018.5 1016.0 -
21/04:30pm 29.8 26.8 2.1 17 14.1 E 7 13 4 7 1018.5 1016.0 -
21/04:00pm 30.0 27.3 3.9 19 13.6 SSE 7 9 4 5 1018.5 1016.0 -
21/03:30pm 30.0 27.5 3.9 19 13.7 ENE 6 13 3 7 1018.5 1016.0 -
21/03:00pm 29.7 27.1 4.4 20 13.3 NNW 7 13 4 7 1018.6 1016.1 -
21/02:30pm 29.3 26.3 4.0 20 13.2 WSW 9 17 5 9 1019.0 1016.4 -
21/02:00pm 29.2 26.2 3.9 20 13.2 S 9 20 5 11 1019.3 1016.7 -
21/01:30pm 28.7 25.1 2.8 19 13.2 S 11 17 6 9 1019.7 1017.2 -
21/01:00pm 28.6 26.4 6.1 24 12.1 N 7 11 4 6 1020.1 1017.6 -
21/12:30pm 28.4 25.5 6.5 25 11.9 SW 11 19 6 10 1020.4 1017.9 -
21/12:00pm 27.5 24.8 5.7 25 11.6 ENE 9 13 5 7 1020.8 1018.3 -
21/11:30am 27.5 25.6 7.4 28 11.0 NE 7 17 4 9 1021.2 1018.7 0.0
21/11:00am 26.4 23.7 7.4 30 10.3 ENE 11 19 6 10 1021.6 1019.1 0.0
21/10:30am 25.2 21.3 6.9 31 9.8 ENE 17 22 9 12 1021.9 1019.4 0.0
21/10:00am 25.2 21.6 8.2 34 9.3 E 17 28 9 15 1022.1 1019.6 0.0
21/09:30am 23.3 19.9 7.8 37 8.4 E 15 20 8 11 1022.3 1019.8 0.0
21/09:00am 22.8 18.8 8.1 39 7.9 E 19 24 10 13 1022.3 1019.8 0.0
21/08:30am 21.8 17.7 8.0 41 7.4 E 19 26 10 14 1022.2 1019.7 0.0
21/08:00am 20.8 16.6 8.4 45 6.6 E 20 24 11 13 1022.2 1019.7 0.0
21/07:30am 19.9 16.0 8.6 48 6.1 ESE 19 26 10 14 1021.9 1019.4 0.0
21/07:00am 18.8 15.4 9.0 53 5.2 ESE 17 24 9 13 1021.5 1019.0 0.0
21/06:30am 17.1 13.9 8.5 57 4.5 ESE 15 20 8 11 1021.3 1018.8 0.0
21/06:00am 15.6 13.9 8.4 62 3.7 ESE 7 11 4 6 1020.8 1018.3 0.0
21/05:30am 14.5 12.0 8.2 66 3.2 E 11 13 6 7 1020.2 1017.7 0.0
21/05:00am 15.1 12.6 8.1 63 3.6 SE 11 15 6 8 1019.9 1017.4 0.0
21/04:30am 15.7 12.8 8.2 61 3.9 SE 13 17 7 9 1019.5 1016.9 0.0
21/04:00am 16.0 13.0 7.5 57 4.4 SSE 13 19 7 10 1019.3 1016.7 0.0
21/03:30am 16.3 12.8 7.3 55 4.6 SSE 15 20 8 11 1019.0 1016.4 0.0
21/03:00am 16.8 13.3 7.2 53 4.9 SSE 15 19 8 10 1018.6 1016.1 0.0
21/02:30am 17.3 13.8 7.1 51 5.2 SSE 15 20 8 11 1018.5 1016.0 0.0
21/02:00am 17.6 13.7 7.1 50 5.4 S 17 20 9 11 1018.5 1016.0 0.0
21/01:30am 17.9 14.0 7.0 49 5.6 S 17 20 9 11 1018.4 1015.9 0.0
21/01:00am 17.9 14.5 7.6 51 5.3 S 15 19 8 10 1018.6 1016.1 0.0
21/12:30am 18.0 15.1 8.0 52 5.2 S 13 17 7 9 1018.8 1016.3 0.0
21/12:00am 18.4 15.4 7.8 50 5.5 S 13 17 7 9 1019.1 1016.5 0.0
 
Date/Time
WST
Temp
°C
App
Temp
°C
Dew
Point
Rel
Hum
%
Delta-T
°C
Wind Press
QNH
hPa
Press
MSL
hPa
Rain
since 9 am
mm
Dir
 
Spd
km/h
Gust
km/h
Spd
kts
Gust
kts
20/11:30pm 18.6 16.0 7.7 49 5.7 S 11 13 6 7 1019.2 1016.6 0.0
20/11:00pm 19.6 16.1 7.4 45 6.4 SSW 15 20 8 11 1019.3 1016.7 0.0
20/10:30pm 19.8 16.8 7.9 46 6.3 SSW 13 15 7 8 1019.4 1016.8 0.0
20/10:00pm 20.4 17.9 8.1 45 6.5 SW 11 13 6 7 1019.6 1017.1 0.0
20/09:30pm 20.5 17.2 8.2 45 6.6 WSW 15 17 8 9 1019.6 1017.1 0.0
20/09:00pm 20.7 17.7 9.3 48 6.2 WSW 15 20 8 11 1019.4 1016.8 0.0
20/08:30pm 20.1 19.3 11.6 58 4.8 WNW 7 9 4 5 1019.0 1016.4 0.0
20/08:00pm 20.8 19.4 9.7 49 6.1 NW 7 9 4 5 1018.6 1016.1 0.0
20/07:30pm 20.9 19.7 10.4 51 5.9 NW 7 9 4 5 1018.2 1015.7 0.0
20/07:00pm 22.8 21.0 7.0 36 8.4 WNW 6 9 3 5 1017.9 1015.4 0.0
20/06:30pm 24.0 21.3 5.4 30 9.6 WNW 9 11 5 6 1017.5 1014.9 0.0
20/06:00pm 25.9 21.6 3.2 23 11.4 W 15 20 8 11 1017.2 1014.6 0.0
20/05:30pm 26.9 21.9 1.3 19 12.6 W 17 26 9 14 1016.7 1014.2 0.0
20/05:00pm 27.4 22.7 3.2 21 12.3 WNW 17 24 9 13 1016.4 1013.9 0.0
20/04:30pm 27.7 23.3 2.7 20 12.6 W 15 24 8 13 1016.2 1013.7 0.0
20/04:00pm 27.5 23.3 3.9 22 12.2 WNW 15 26 8 14 1016.0 1013.4 0.0
20/03:30pm 27.6 23.3 5.2 24 11.8 W 17 26 9 14 1015.9 1013.3 0.0
20/03:00pm 27.2 22.0 3.7 22 12.0 SW 20 24 11 13 1015.9 1013.3 0.0
20/02:30pm 26.6 22.4 5.5 26 11.1 NW 17 20 9 11 1016.0 1013.4 0.0
20/02:00pm 26.9 21.9 4.6 24 11.6 W 20 35 11 19 1016.1 1013.5 0.0
20/01:30pm 26.1 21.1 4.6 25 11.1 NW 20 28 11 15 1016.5 1014.0 0.0
20/01:00pm 25.7 20.5 7.3 31 10.0 W 24 35 13 19 1016.8 1014.3 0.0
20/12:30pm 25.1 21.1 4.8 27 10.5 W 15 26 8 14 1017.1 1014.5 0.0
20/12:00pm 24.8 20.3 6.1 30 9.9 NW 19 24 10 13 1017.4 1014.8 0.0
20/11:30am 23.8 20.3 7.0 34 9.0 SW 15 24 8 13 1017.6 1015.0 0.0
20/11:00am 23.5 20.5 5.9 32 9.2 W 11 20 6 11 1017.9 1015.4 0.0
20/10:30am 23.1 20.7 8.8 40 7.8 N 11 17 6 9 1018.1 1015.6 0.0
20/10:00am 22.6 20.6 7.2 37 8.2 N 7 11 4 6 1018.4 1015.9 0.0

Other Formats:

Comma delimited format used in spreadsheet applications
http://www.bom.gov.au/fwo/IDW60801/IDW60801.99434.axf

JavaScript Object Notation format (JSON) in row-major order
http://www.bom.gov.au/fwo/IDW60801/IDW60801.99434.json